sensor_id;sensor_type;location;lat;lon;timestamp;P1;durP1;ratioP1;P2;durP2;ratioP2
65924;SDS011;66010;52.084;5.412;2023-08-24T00:01:00;5.57;;;1.77;;
65924;SDS011;66010;52.084;5.412;2023-08-24T00:03:27;3.83;;;1.50;;
65924;SDS011;66010;52.084;5.412;2023-08-24T00:05:53;5.22;;;1.50;;
65924;SDS011;66010;52.084;5.412;2023-08-24T00:08:20;5.38;;;1.63;;
65924;SDS011;66010;52.084;5.412;2023-08-24T00:10:46;4.68;;;1.50;;
65924;SDS011;66010;52.084;5.412;2023-08-24T00:13:13;4.28;;;1.83;;
65924;SDS011;66010;52.084;5.412;2023-08-24T00:15:39;4.18;;;1.90;;
65924;SDS011;66010;52.084;5.412;2023-08-24T00:18:06;3.28;;;1.60;;
65924;SDS011;66010;52.084;5.412;2023-08-24T00:20:33;3.00;;;1.75;;
65924;SDS011;66010;52.084;5.412;2023-08-24T00:23:00;5.13;;;1.90;;
65924;SDS011;66010;52.084;5.412;2023-08-24T00:25:26;5.40;;;1.73;;
65924;SDS011;66010;52.084;5.412;2023-08-24T00:27:53;5.85;;;1.90;;
65924;SDS011;66010;52.084;5.412;2023-08-24T00:30:20;4.60;;;1.80;;
65924;SDS011;66010;52.084;5.412;2023-08-24T00:32:46;4.47;;;1.70;;
65924;SDS011;66010;52.084;5.412;2023-08-24T00:35:13;5.22;;;1.85;;
65924;SDS011;66010;52.084;5.412;2023-08-24T00:37:40;4.68;;;1.60;;
65924;SDS011;66010;52.084;5.412;2023-08-24T00:40:07;5.43;;;1.75;;
65924;SDS011;66010;52.084;5.412;2023-08-24T00:42:40;4.88;;;1.60;;
65924;SDS011;66010;52.084;5.412;2023-08-24T00:45:07;3.55;;;1.70;;
65924;SDS011;66010;52.084;5.412;2023-08-24T00:47:46;3.63;;;1.80;;
65924;SDS011;66010;52.084;5.412;2023-08-24T00:50:13;7.10;;;1.80;;
65924;SDS011;66010;52.084;5.412;2023-08-24T00:52:42;4.68;;;1.80;;
65924;SDS011;66010;52.084;5.412;2023-08-24T00:55:09;5.50;;;1.92;;
65924;SDS011;66010;52.084;5.412;2023-08-24T00:57:37;5.15;;;2.05;;
65924;SDS011;66010;52.084;5.412;2023-08-24T01:00:04;5.85;;;1.98;;
65924;SDS011;66010;52.084;5.412;2023-08-24T01:02:38;4.18;;;1.90;;
65924;SDS011;66010;52.084;5.412;2023-08-24T01:05:04;5.00;;;1.90;;
65924;SDS011;66010;52.084;5.412;2023-08-24T01:07:32;7.00;;;1.83;;
65924;SDS011;66010;52.084;5.412;2023-08-24T01:09:58;10.60;;;2.10;;
65924;SDS011;66010;52.084;5.412;2023-08-24T01:17:37;6.35;;;1.80;;
65924;SDS011;66010;52.084;5.412;2023-08-24T01:27:44;5.93;;;1.90;;
65924;SDS011;66010;52.084;5.412;2023-08-24T01:32:41;11.48;;;2.20;;
65924;SDS011;66010;52.084;5.412;2023-08-24T01:35:08;6.22;;;2.15;;
65924;SDS011;66010;52.084;5.412;2023-08-24T01:37:36;5.50;;;2.00;;
65924;SDS011;66010;52.084;5.412;2023-08-24T01:40:10;8.73;;;2.17;;
65924;SDS011;66010;52.084;5.412;2023-08-24T01:42:43;6.57;;;2.10;;
65924;SDS011;66010;52.084;5.412;2023-08-24T01:45:11;9.63;;;1.98;;
65924;SDS011;66010;52.084;5.412;2023-08-24T01:47:39;11.23;;;2.35;;
65924;SDS011;66010;52.084;5.412;2023-08-24T01:50:07;5.30;;;2.10;;
65924;SDS011;66010;52.084;5.412;2023-08-24T01:52:34;4.80;;;1.90;;
65924;SDS011;66010;52.084;5.412;2023-08-24T01:55:02;5.70;;;2.10;;
65924;SDS011;66010;52.084;5.412;2023-08-24T01:57:29;5.72;;;1.80;;
65924;SDS011;66010;52.084;5.412;2023-08-24T01:59:56;4.13;;;2.05;;
65924;SDS011;66010;52.084;5.412;2023-08-24T02:02:23;6.28;;;1.90;;
65924;SDS011;66010;52.084;5.412;2023-08-24T02:04:50;5.22;;;1.98;;
65924;SDS011;66010;52.084;5.412;2023-08-24T02:07:16;4.00;;;2.00;;
65924;SDS011;66010;52.084;5.412;2023-08-24T02:09:43;4.28;;;2.00;;
65924;SDS011;66010;52.084;5.412;2023-08-24T02:12:09;3.78;;;1.85;;
65924;SDS011;66010;52.084;5.412;2023-08-24T02:14:36;6.18;;;2.10;;
65924;SDS011;66010;52.084;5.412;2023-08-24T02:17:02;4.60;;;2.17;;
65924;SDS011;66010;52.084;5.412;2023-08-24T02:21:56;5.18;;;1.90;;
65924;SDS011;66010;52.084;5.412;2023-08-24T02:24:22;5.03;;;1.83;;
65924;SDS011;66010;52.084;5.412;2023-08-24T02:26:49;4.70;;;2.00;;
65924;SDS011;66010;52.084;5.412;2023-08-24T02:29:16;6.72;;;2.45;;
65924;SDS011;66010;52.084;5.412;2023-08-24T02:31:42;16.88;;;3.05;;
65924;SDS011;66010;52.084;5.412;2023-08-24T02:34:09;9.10;;;2.63;;
65924;SDS011;66010;52.084;5.412;2023-08-24T02:36:35;6.88;;;2.42;;
65924;SDS011;66010;52.084;5.412;2023-08-24T02:39:02;5.75;;;2.28;;
65924;SDS011;66010;52.084;5.412;2023-08-24T02:41:29;7.25;;;2.83;;
65924;SDS011;66010;52.084;5.412;2023-08-24T02:43:55;8.30;;;2.75;;
65924;SDS011;66010;52.084;5.412;2023-08-24T02:46:22;7.03;;;2.80;;
65924;SDS011;66010;52.084;5.412;2023-08-24T02:48:49;7.90;;;3.40;;
65924;SDS011;66010;52.084;5.412;2023-08-24T02:51:17;6.20;;;2.90;;
65924;SDS011;66010;52.084;5.412;2023-08-24T02:53:43;6.57;;;2.58;;
65924;SDS011;66010;52.084;5.412;2023-08-24T02:56:10;7.93;;;2.70;;
65924;SDS011;66010;52.084;5.412;2023-08-24T02:58:37;7.97;;;2.50;;
65924;SDS011;66010;52.084;5.412;2023-08-24T03:01:07;5.30;;;2.40;;
65924;SDS011;66010;52.084;5.412;2023-08-24T03:03:34;7.28;;;2.70;;
65924;SDS011;66010;52.084;5.412;2023-08-24T03:06:05;5.47;;;2.22;;
65924;SDS011;66010;52.084;5.412;2023-08-24T03:08:33;11.93;;;2.85;;
65924;SDS011;66010;52.084;5.412;2023-08-24T03:11:00;5.68;;;2.30;;
65924;SDS011;66010;52.084;5.412;2023-08-24T03:13:27;5.20;;;2.08;;
65924;SDS011;66010;52.084;5.412;2023-08-24T03:15:54;6.35;;;2.22;;
65924;SDS011;66010;52.084;5.412;2023-08-24T03:18:23;5.60;;;2.40;;
65924;SDS011;66010;52.084;5.412;2023-08-24T03:20:50;9.70;;;3.33;;
65924;SDS011;66010;52.084;5.412;2023-08-24T03:23:16;6.60;;;2.50;;
65924;SDS011;66010;52.084;5.412;2023-08-24T03:25:43;7.10;;;2.45;;
65924;SDS011;66010;52.084;5.412;2023-08-24T03:28:10;6.53;;;2.35;;
65924;SDS011;66010;52.084;5.412;2023-08-24T03:30:37;6.72;;;2.50;;
65924;SDS011;66010;52.084;5.412;2023-08-24T03:33:04;5.75;;;2.42;;
65924;SDS011;66010;52.084;5.412;2023-08-24T03:37:58;6.15;;;2.40;;
65924;SDS011;66010;52.084;5.412;2023-08-24T03:42:52;5.20;;;2.10;;
65924;SDS011;66010;52.084;5.412;2023-08-24T03:45:20;11.32;;;2.60;;
65924;SDS011;66010;52.084;5.412;2023-08-24T03:47:46;6.35;;;2.38;;
65924;SDS011;66010;52.084;5.412;2023-08-24T03:52:40;7.75;;;2.55;;
65924;SDS011;66010;52.084;5.412;2023-08-24T03:55:07;6.93;;;2.65;;
65924;SDS011;66010;52.084;5.412;2023-08-24T03:57:34;8.35;;;2.95;;
65924;SDS011;66010;52.084;5.412;2023-08-24T04:00:01;5.78;;;2.65;;
65924;SDS011;66010;52.084;5.412;2023-08-24T04:02:39;5.15;;;2.40;;
65924;SDS011;66010;52.084;5.412;2023-08-24T04:05:06;6.53;;;2.53;;
65924;SDS011;66010;52.084;5.412;2023-08-24T04:07:32;6.57;;;2.60;;
65924;SDS011;66010;52.084;5.412;2023-08-24T04:10:02;5.85;;;2.70;;
65924;SDS011;66010;52.084;5.412;2023-08-24T04:12:31;4.70;;;2.40;;
65924;SDS011;66010;52.084;5.412;2023-08-24T04:14:58;10.77;;;2.60;;
65924;SDS011;66010;52.084;5.412;2023-08-24T04:17:25;6.15;;;2.58;;
65924;SDS011;66010;52.084;5.412;2023-08-24T04:19:51;6.43;;;2.67;;
65924;SDS011;66010;52.084;5.412;2023-08-24T04:24:45;6.70;;;2.85;;
65924;SDS011;66010;52.084;5.412;2023-08-24T04:27:11;5.85;;;2.30;;
65924;SDS011;66010;52.084;5.412;2023-08-24T04:29:38;5.53;;;2.22;;
65924;SDS011;66010;52.084;5.412;2023-08-24T04:32:05;6.82;;;2.40;;
65924;SDS011;66010;52.084;5.412;2023-08-24T04:34:32;5.97;;;2.50;;
65924;SDS011;66010;52.084;5.412;2023-08-24T04:36:58;5.95;;;2.55;;
65924;SDS011;66010;52.084;5.412;2023-08-24T04:39:25;5.63;;;2.50;;
65924;SDS011;66010;52.084;5.412;2023-08-24T04:41:51;6.43;;;2.42;;
65924;SDS011;66010;52.084;5.412;2023-08-24T04:44:18;6.53;;;2.60;;
65924;SDS011;66010;52.084;5.412;2023-08-24T04:46:45;6.47;;;2.47;;
65924;SDS011;66010;52.084;5.412;2023-08-24T04:49:11;5.43;;;2.35;;
65924;SDS011;66010;52.084;5.412;2023-08-24T04:51:38;5.40;;;2.40;;
65924;SDS011;66010;52.084;5.412;2023-08-24T04:54:05;5.68;;;2.65;;
65924;SDS011;66010;52.084;5.412;2023-08-24T04:56:31;7.00;;;2.53;;
65924;SDS011;66010;52.084;5.412;2023-08-24T04:58:58;7.00;;;2.60;;
65924;SDS011;66010;52.084;5.412;2023-08-24T05:01:26;8.02;;;2.58;;
65924;SDS011;66010;52.084;5.412;2023-08-24T05:03:53;6.20;;;2.50;;
65924;SDS011;66010;52.084;5.412;2023-08-24T05:06:20;6.88;;;2.38;;
65924;SDS011;66010;52.084;5.412;2023-08-24T05:08:47;7.40;;;2.60;;
65924;SDS011;66010;52.084;5.412;2023-08-24T05:11:23;5.43;;;2.60;;
65924;SDS011;66010;52.084;5.412;2023-08-24T05:13:52;7.50;;;3.13;;
65924;SDS011;66010;52.084;5.412;2023-08-24T05:16:19;8.13;;;2.92;;
65924;SDS011;66010;52.084;5.412;2023-08-24T05:18:46;8.18;;;2.60;;
65924;SDS011;66010;52.084;5.412;2023-08-24T05:21:12;5.97;;;2.58;;
65924;SDS011;66010;52.084;5.412;2023-08-24T05:23:39;7.28;;;2.60;;
65924;SDS011;66010;52.084;5.412;2023-08-24T05:26:06;5.82;;;2.70;;
65924;SDS011;66010;52.084;5.412;2023-08-24T05:28:32;5.80;;;2.50;;
65924;SDS011;66010;52.084;5.412;2023-08-24T05:30:59;7.18;;;2.72;;
65924;SDS011;66010;52.084;5.412;2023-08-24T05:33:27;4.80;;;2.30;;
65924;SDS011;66010;52.084;5.412;2023-08-24T05:35:57;7.10;;;2.50;;
65924;SDS011;66010;52.084;5.412;2023-08-24T05:38:24;8.43;;;2.92;;
65924;SDS011;66010;52.084;5.412;2023-08-24T05:40:51;9.07;;;2.60;;
65924;SDS011;66010;52.084;5.412;2023-08-24T05:43:18;6.35;;;2.70;;
65924;SDS011;66010;52.084;5.412;2023-08-24T05:45:45;7.03;;;2.85;;
65924;SDS011;66010;52.084;5.412;2023-08-24T05:48:13;7.32;;;2.80;;
65924;SDS011;66010;52.084;5.412;2023-08-24T05:50:43;7.50;;;2.60;;
65924;SDS011;66010;52.084;5.412;2023-08-24T05:53:09;6.20;;;2.50;;
65924;SDS011;66010;52.084;5.412;2023-08-24T05:55:36;7.63;;;2.80;;
65924;SDS011;66010;52.084;5.412;2023-08-24T05:58:03;6.18;;;2.60;;
65924;SDS011;66010;52.084;5.412;2023-08-24T06:00:30;7.32;;;2.60;;
65924;SDS011;66010;52.084;5.412;2023-08-24T06:02:56;6.65;;;2.60;;
65924;SDS011;66010;52.084;5.412;2023-08-24T06:05:23;6.47;;;2.47;;
65924;SDS011;66010;52.084;5.412;2023-08-24T06:07:49;7.65;;;2.58;;
65924;SDS011;66010;52.084;5.412;2023-08-24T06:10:17;6.85;;;2.17;;
65924;SDS011;66010;52.084;5.412;2023-08-24T06:12:43;7.53;;;2.33;;
65924;SDS011;66010;52.084;5.412;2023-08-24T06:15:10;6.43;;;2.30;;
65924;SDS011;66010;52.084;5.412;2023-08-24T06:17:39;7.40;;;2.50;;
65924;SDS011;66010;52.084;5.412;2023-08-24T06:20:06;9.77;;;2.70;;
65924;SDS011;66010;52.084;5.412;2023-08-24T06:22:37;10.90;;;2.50;;
65924;SDS011;66010;52.084;5.412;2023-08-24T06:25:03;6.57;;;2.35;;
65924;SDS011;66010;52.084;5.412;2023-08-24T06:27:31;8.75;;;2.70;;
65924;SDS011;66010;52.084;5.412;2023-08-24T06:29:58;8.45;;;2.60;;
65924;SDS011;66010;52.084;5.412;2023-08-24T06:32:24;8.30;;;2.33;;
65924;SDS011;66010;52.084;5.412;2023-08-24T06:34:51;9.80;;;2.83;;
65924;SDS011;66010;52.084;5.412;2023-08-24T06:37:17;7.20;;;2.40;;
65924;SDS011;66010;52.084;5.412;2023-08-24T06:39:44;8.10;;;2.60;;
65924;SDS011;66010;52.084;5.412;2023-08-24T06:42:10;13.32;;;5.97;;
65924;SDS011;66010;52.084;5.412;2023-08-24T06:44:37;9.45;;;3.78;;
65924;SDS011;66010;52.084;5.412;2023-08-24T06:47:03;13.05;;;6.60;;
65924;SDS011;66010;52.084;5.412;2023-08-24T06:49:31;12.18;;;7.18;;
65924;SDS011;66010;52.084;5.412;2023-08-24T06:51:57;11.60;;;5.68;;
65924;SDS011;66010;52.084;5.412;2023-08-24T06:54:24;10.07;;;4.88;;
65924;SDS011;66010;52.084;5.412;2023-08-24T06:56:53;12.40;;;6.28;;
65924;SDS011;66010;52.084;5.412;2023-08-24T06:59:19;11.82;;;6.80;;
65924;SDS011;66010;52.084;5.412;2023-08-24T07:01:46;16.63;;;8.43;;
65924;SDS011;66010;52.084;5.412;2023-08-24T07:04:13;15.30;;;7.43;;
65924;SDS011;66010;52.084;5.412;2023-08-24T07:06:41;11.88;;;6.22;;
65924;SDS011;66010;52.084;5.412;2023-08-24T07:09:09;11.80;;;6.25;;
65924;SDS011;66010;52.084;5.412;2023-08-24T07:11:36;15.68;;;8.27;;
65924;SDS011;66010;52.084;5.412;2023-08-24T07:14:02;11.57;;;5.60;;
65924;SDS011;66010;52.084;5.412;2023-08-24T07:16:29;19.38;;;9.57;;
65924;SDS011;66010;52.084;5.412;2023-08-24T07:18:55;8.57;;;4.03;;
65924;SDS011;66010;52.084;5.412;2023-08-24T07:21:22;10.05;;;4.05;;
65924;SDS011;66010;52.084;5.412;2023-08-24T07:23:49;12.57;;;5.60;;
65924;SDS011;66010;52.084;5.412;2023-08-24T07:26:15;14.60;;;8.82;;
65924;SDS011;66010;52.084;5.412;2023-08-24T07:28:42;11.85;;;4.53;;
65924;SDS011;66010;52.084;5.412;2023-08-24T07:31:09;14.95;;;7.95;;
65924;SDS011;66010;52.084;5.412;2023-08-24T07:33:37;10.10;;;4.10;;
65924;SDS011;66010;52.084;5.412;2023-08-24T07:36:06;13.30;;;6.93;;
65924;SDS011;66010;52.084;5.412;2023-08-24T07:38:33;10.52;;;5.32;;
65924;SDS011;66010;52.084;5.412;2023-08-24T07:41:00;14.00;;;7.55;;
65924;SDS011;66010;52.084;5.412;2023-08-24T07:43:26;14.60;;;9.43;;
65924;SDS011;66010;52.084;5.412;2023-08-24T07:45:53;15.48;;;8.57;;
65924;SDS011;66010;52.084;5.412;2023-08-24T07:50:47;16.55;;;8.50;;
65924;SDS011;66010;52.084;5.412;2023-08-24T07:53:13;10.95;;;4.70;;
65924;SDS011;66010;52.084;5.412;2023-08-24T07:55:41;9.07;;;4.90;;
65924;SDS011;66010;52.084;5.412;2023-08-24T07:58:08;14.55;;;8.88;;
65924;SDS011;66010;52.084;5.412;2023-08-24T08:00:34;18.65;;;10.18;;
65924;SDS011;66010;52.084;5.412;2023-08-24T08:03:01;15.38;;;8.93;;
65924;SDS011;66010;52.084;5.412;2023-08-24T08:05:28;15.55;;;9.38;;
65924;SDS011;66010;52.084;5.412;2023-08-24T08:07:54;18.35;;;10.25;;
65924;SDS011;66010;52.084;5.412;2023-08-24T08:10:21;16.67;;;8.98;;
65924;SDS011;66010;52.084;5.412;2023-08-24T08:12:47;13.68;;;8.10;;
65924;SDS011;66010;52.084;5.412;2023-08-24T08:15:14;16.77;;;8.90;;
65924;SDS011;66010;52.084;5.412;2023-08-24T08:17:41;14.32;;;7.93;;
65924;SDS011;66010;52.084;5.412;2023-08-24T08:20:13;15.77;;;9.50;;
65924;SDS011;66010;52.084;5.412;2023-08-24T08:22:40;16.33;;;9.75;;
65924;SDS011;66010;52.084;5.412;2023-08-24T08:25:06;16.38;;;8.57;;
65924;SDS011;66010;52.084;5.412;2023-08-24T08:27:33;16.05;;;8.98;;
65924;SDS011;66010;52.084;5.412;2023-08-24T08:29:59;16.08;;;9.00;;
65924;SDS011;66010;52.084;5.412;2023-08-24T08:32:26;18.02;;;9.35;;
65924;SDS011;66010;52.084;5.412;2023-08-24T08:34:54;16.50;;;9.80;;
65924;SDS011;66010;52.084;5.412;2023-08-24T08:37:21;16.35;;;9.80;;
65924;SDS011;66010;52.084;5.412;2023-08-24T08:39:47;16.85;;;9.40;;
65924;SDS011;66010;52.084;5.412;2023-08-24T08:42:14;14.75;;;8.30;;
65924;SDS011;66010;52.084;5.412;2023-08-24T08:44:41;13.30;;;7.50;;
65924;SDS011;66010;52.084;5.412;2023-08-24T08:47:10;16.00;;;8.82;;
65924;SDS011;66010;52.084;5.412;2023-08-24T08:49:38;15.43;;;8.65;;
65924;SDS011;66010;52.084;5.412;2023-08-24T08:52:05;14.93;;;8.27;;
65924;SDS011;66010;52.084;5.412;2023-08-24T08:54:32;14.30;;;8.45;;
65924;SDS011;66010;52.084;5.412;2023-08-24T08:57:01;13.57;;;8.40;;
65924;SDS011;66010;52.084;5.412;2023-08-24T08:59:28;15.65;;;8.35;;
65924;SDS011;66010;52.084;5.412;2023-08-24T09:01:57;15.25;;;7.05;;
65924;SDS011;66010;52.084;5.412;2023-08-24T09:04:27;15.00;;;8.18;;
65924;SDS011;66010;52.084;5.412;2023-08-24T09:06:55;15.85;;;7.85;;
65924;SDS011;66010;52.084;5.412;2023-08-24T09:09:22;15.48;;;8.25;;
65924;SDS011;66010;52.084;5.412;2023-08-24T09:11:49;15.95;;;8.57;;
65924;SDS011;66010;52.084;5.412;2023-08-24T09:14:16;13.48;;;7.57;;
65924;SDS011;66010;52.084;5.412;2023-08-24T09:16:43;15.88;;;8.57;;
65924;SDS011;66010;52.084;5.412;2023-08-24T09:19:13;13.38;;;8.13;;
65924;SDS011;66010;52.084;5.412;2023-08-24T09:21:39;9.50;;;4.20;;
65924;SDS011;66010;52.084;5.412;2023-08-24T09:24:08;8.20;;;3.85;;
65924;SDS011;66010;52.084;5.412;2023-08-24T09:26:36;12.75;;;5.85;;
65924;SDS011;66010;52.084;5.412;2023-08-24T09:29:13;14.68;;;8.98;;
65924;SDS011;66010;52.084;5.412;2023-08-24T09:31:40;9.75;;;5.65;;
65924;SDS011;66010;52.084;5.412;2023-08-24T09:34:06;9.70;;;4.35;;
65924;SDS011;66010;52.084;5.412;2023-08-24T09:36:33;9.35;;;4.50;;
65924;SDS011;66010;52.084;5.412;2023-08-24T09:39:01;14.30;;;7.90;;
65924;SDS011;66010;52.084;5.412;2023-08-24T09:41:40;16.13;;;9.75;;
65924;SDS011;66010;52.084;5.412;2023-08-24T09:44:06;8.18;;;4.15;;
65924;SDS011;66010;52.084;5.412;2023-08-24T09:46:34;16.58;;;8.82;;
65924;SDS011;66010;52.084;5.412;2023-08-24T09:49:01;16.33;;;9.52;;
65924;SDS011;66010;52.084;5.412;2023-08-24T09:51:27;13.90;;;7.78;;
65924;SDS011;66010;52.084;5.412;2023-08-24T09:53:56;8.40;;;3.72;;
65924;SDS011;66010;52.084;5.412;2023-08-24T09:56:25;10.32;;;5.13;;
65924;SDS011;66010;52.084;5.412;2023-08-24T09:58:52;17.30;;;10.25;;
65924;SDS011;66010;52.084;5.412;2023-08-24T10:01:20;15.20;;;9.10;;
65924;SDS011;66010;52.084;5.412;2023-08-24T10:06:13;13.40;;;7.07;;
65924;SDS011;66010;52.084;5.412;2023-08-24T10:08:43;10.57;;;5.00;;
65924;SDS011;66010;52.084;5.412;2023-08-24T10:11:10;15.68;;;9.32;;
65924;SDS011;66010;52.084;5.412;2023-08-24T10:13:53;18.40;;;10.48;;
65924;SDS011;66010;52.084;5.412;2023-08-24T10:16:22;14.90;;;9.82;;
65924;SDS011;66010;52.084;5.412;2023-08-24T10:18:49;17.02;;;11.07;;
65924;SDS011;66010;52.084;5.412;2023-08-24T10:21:18;17.98;;;11.48;;
65924;SDS011;66010;52.084;5.412;2023-08-24T10:23:45;19.95;;;11.00;;
65924;SDS011;66010;52.084;5.412;2023-08-24T10:26:12;17.30;;;11.55;;
65924;SDS011;66010;52.084;5.412;2023-08-24T10:28:40;19.40;;;12.30;;
65924;SDS011;66010;52.084;5.412;2023-08-24T10:31:06;17.90;;;11.13;;
65924;SDS011;66010;52.084;5.412;2023-08-24T10:33:33;18.02;;;11.43;;
65924;SDS011;66010;52.084;5.412;2023-08-24T10:36:03;18.40;;;11.57;;
65924;SDS011;66010;52.084;5.412;2023-08-24T10:38:30;16.42;;;10.48;;
65924;SDS011;66010;52.084;5.412;2023-08-24T10:41:03;18.25;;;11.27;;
65924;SDS011;66010;52.084;5.412;2023-08-24T10:43:40;18.95;;;12.38;;
65924;SDS011;66010;52.084;5.412;2023-08-24T10:46:13;16.80;;;10.43;;
65924;SDS011;66010;52.084;5.412;2023-08-24T10:53:40;18.70;;;11.95;;
65924;SDS011;66010;52.084;5.412;2023-08-24T10:56:10;22.58;;;12.63;;
65924;SDS011;66010;52.084;5.412;2023-08-24T10:58:37;16.33;;;9.52;;
65924;SDS011;66010;52.084;5.412;2023-08-24T11:01:04;17.73;;;10.18;;
65924;SDS011;66010;52.084;5.412;2023-08-24T11:03:33;11.35;;;5.68;;
65924;SDS011;66010;52.084;5.412;2023-08-24T11:06:00;16.85;;;10.02;;
65924;SDS011;66010;52.084;5.412;2023-08-24T11:08:45;18.73;;;11.18;;
65924;SDS011;66010;52.084;5.412;2023-08-24T11:13:39;16.77;;;10.63;;
65924;SDS011;66010;52.084;5.412;2023-08-24T11:16:59;16.23;;;11.55;;
65924;SDS011;66010;52.084;5.412;2023-08-24T11:19:18;21.50;;;11.82;;
65924;SDS011;66010;52.084;5.412;2023-08-24T11:21:47;17.08;;;10.32;;
65924;SDS011;66010;52.084;5.412;2023-08-24T11:24:18;15.13;;;7.68;;
65924;SDS011;66010;52.084;5.412;2023-08-24T11:26:45;19.63;;;12.02;;
65924;SDS011;66010;52.084;5.412;2023-08-24T11:29:12;18.67;;;11.75;;
65924;SDS011;66010;52.084;5.412;2023-08-24T11:31:39;18.42;;;11.10;;
65924;SDS011;66010;52.084;5.412;2023-08-24T11:34:09;13.18;;;6.75;;
65924;SDS011;66010;52.084;5.412;2023-08-24T11:36:41;19.70;;;12.00;;
65924;SDS011;66010;52.084;5.412;2023-08-24T11:39:13;17.90;;;10.88;;
65924;SDS011;66010;52.084;5.412;2023-08-24T11:41:40;21.45;;;12.20;;
65924;SDS011;66010;52.084;5.412;2023-08-24T11:44:06;18.50;;;10.93;;
65924;SDS011;66010;52.084;5.412;2023-08-24T11:46:52;15.05;;;8.40;;
65924;SDS011;66010;52.084;5.412;2023-08-24T11:49:19;16.85;;;11.20;;
65924;SDS011;66010;52.084;5.412;2023-08-24T11:51:45;19.38;;;12.55;;
65924;SDS011;66010;52.084;5.412;2023-08-24T11:54:12;18.45;;;10.25;;
65924;SDS011;66010;52.084;5.412;2023-08-24T11:56:42;16.42;;;9.10;;
65924;SDS011;66010;52.084;5.412;2023-08-24T11:59:15;20.35;;;13.07;;
65924;SDS011;66010;52.084;5.412;2023-08-24T12:01:42;18.00;;;12.50;;
65924;SDS011;66010;52.084;5.412;2023-08-24T12:04:09;21.42;;;14.35;;
65924;SDS011;66010;52.084;5.412;2023-08-24T12:06:35;22.48;;;14.25;;
65924;SDS011;66010;52.084;5.412;2023-08-24T12:09:04;21.05;;;11.55;;
65924;SDS011;66010;52.084;5.412;2023-08-24T12:11:34;12.50;;;5.40;;
65924;SDS011;66010;52.084;5.412;2023-08-24T12:14:01;23.92;;;13.85;;
65924;SDS011;66010;52.084;5.412;2023-08-24T12:16:30;18.52;;;12.10;;
65924;SDS011;66010;52.084;5.412;2023-08-24T12:18:57;21.13;;;12.23;;
65924;SDS011;66010;52.084;5.412;2023-08-24T12:21:29;15.77;;;9.77;;
65924;SDS011;66010;52.084;5.412;2023-08-24T12:23:59;12.73;;;5.60;;
65924;SDS011;66010;52.084;5.412;2023-08-24T12:26:26;11.75;;;6.15;;
65924;SDS011;66010;52.084;5.412;2023-08-24T12:28:55;12.93;;;6.75;;
65924;SDS011;66010;52.084;5.412;2023-08-24T12:31:26;14.65;;;6.88;;
65924;SDS011;66010;52.084;5.412;2023-08-24T12:36:19;20.27;;;12.77;;
65924;SDS011;66010;52.084;5.412;2023-08-24T12:38:46;11.70;;;6.70;;
65924;SDS011;66010;52.084;5.412;2023-08-24T12:41:14;15.45;;;7.00;;
65924;SDS011;66010;52.084;5.412;2023-08-24T12:43:40;21.65;;;14.68;;
65924;SDS011;66010;52.084;5.412;2023-08-24T12:46:10;15.80;;;8.43;;
65924;SDS011;66010;52.084;5.412;2023-08-24T12:48:36;18.90;;;10.32;;
65924;SDS011;66010;52.084;5.412;2023-08-24T12:51:03;17.30;;;8.15;;
65924;SDS011;66010;52.084;5.412;2023-08-24T12:53:29;12.52;;;7.03;;
65924;SDS011;66010;52.084;5.412;2023-08-24T12:55:56;16.05;;;8.85;;
65924;SDS011;66010;52.084;5.412;2023-08-24T12:58:23;19.05;;;9.85;;
65924;SDS011;66010;52.084;5.412;2023-08-24T13:00:49;11.00;;;6.10;;
65924;SDS011;66010;52.084;5.412;2023-08-24T13:03:16;22.00;;;14.30;;
65924;SDS011;66010;52.084;5.412;2023-08-24T13:05:43;12.15;;;6.45;;
65924;SDS011;66010;52.084;5.412;2023-08-24T13:08:09;12.80;;;5.82;;
65924;SDS011;66010;52.084;5.412;2023-08-24T13:10:36;11.35;;;6.32;;
65924;SDS011;66010;52.084;5.412;2023-08-24T13:13:03;16.23;;;9.13;;
65924;SDS011;66010;52.084;5.412;2023-08-24T13:15:29;18.98;;;10.90;;
65924;SDS011;66010;52.084;5.412;2023-08-24T13:17:56;18.27;;;11.27;;
65924;SDS011;66010;52.084;5.412;2023-08-24T13:20:24;18.33;;;13.07;;
65924;SDS011;66010;52.084;5.412;2023-08-24T13:22:54;18.83;;;12.32;;
65924;SDS011;66010;52.084;5.412;2023-08-24T13:25:21;15.70;;;8.63;;
65924;SDS011;66010;52.084;5.412;2023-08-24T13:27:48;21.65;;;13.52;;
65924;SDS011;66010;52.084;5.412;2023-08-24T13:32:41;20.67;;;14.40;;
65924;SDS011;66010;52.084;5.412;2023-08-24T13:35:08;22.05;;;14.20;;
65924;SDS011;66010;52.084;5.412;2023-08-24T13:37:35;20.65;;;11.57;;
65924;SDS011;66010;52.084;5.412;2023-08-24T13:40:02;16.40;;;9.10;;
65924;SDS011;66010;52.084;5.412;2023-08-24T13:42:30;14.52;;;7.45;;
65924;SDS011;66010;52.084;5.412;2023-08-24T13:44:56;14.55;;;7.75;;
65924;SDS011;66010;52.084;5.412;2023-08-24T13:47:23;14.63;;;8.48;;
65924;SDS011;66010;52.084;5.412;2023-08-24T13:49:50;16.02;;;8.73;;
65924;SDS011;66010;52.084;5.412;2023-08-24T13:52:17;18.33;;;11.73;;
65924;SDS011;66010;52.084;5.412;2023-08-24T13:54:45;15.90;;;10.25;;
65924;SDS011;66010;52.084;5.412;2023-08-24T13:57:25;20.85;;;13.80;;
65924;SDS011;66010;52.084;5.412;2023-08-24T13:59:51;18.27;;;11.90;;
65924;SDS011;66010;52.084;5.412;2023-08-24T14:02:18;17.13;;;8.07;;
65924;SDS011;66010;52.084;5.412;2023-08-24T14:04:45;12.30;;;7.95;;
65924;SDS011;66010;52.084;5.412;2023-08-24T14:07:11;18.40;;;10.50;;
65924;SDS011;66010;52.084;5.412;2023-08-24T14:09:41;19.30;;;14.30;;
65924;SDS011;66010;52.084;5.412;2023-08-24T14:12:24;23.17;;;16.20;;
65924;SDS011;66010;52.084;5.412;2023-08-24T14:14:51;20.13;;;10.68;;
65924;SDS011;66010;52.084;5.412;2023-08-24T14:17:17;19.10;;;10.85;;
65924;SDS011;66010;52.084;5.412;2023-08-24T14:19:44;23.90;;;18.10;;
65924;SDS011;66010;52.084;5.412;2023-08-24T14:22:10;24.63;;;17.67;;
65924;SDS011;66010;52.084;5.412;2023-08-24T14:24:37;23.38;;;17.13;;
65924;SDS011;66010;52.084;5.412;2023-08-24T14:27:04;23.73;;;18.30;;
65924;SDS011;66010;52.084;5.412;2023-08-24T14:29:30;23.80;;;17.13;;
65924;SDS011;66010;52.084;5.412;2023-08-24T14:31:57;27.83;;;17.27;;
65924;SDS011;66010;52.084;5.412;2023-08-24T14:34:24;25.75;;;17.20;;
65924;SDS011;66010;52.084;5.412;2023-08-24T14:36:50;21.70;;;14.45;;
65924;SDS011;66010;52.084;5.412;2023-08-24T14:39:17;20.23;;;14.38;;
65924;SDS011;66010;52.084;5.412;2023-08-24T14:41:44;24.85;;;15.43;;
65924;SDS011;66010;52.084;5.412;2023-08-24T14:44:10;26.88;;;15.65;;
65924;SDS011;66010;52.084;5.412;2023-08-24T14:46:37;20.35;;;13.52;;
65924;SDS011;66010;52.084;5.412;2023-08-24T14:49:05;22.85;;;13.70;;
65924;SDS011;66010;52.084;5.412;2023-08-24T14:51:32;19.20;;;12.98;;
65924;SDS011;66010;52.084;5.412;2023-08-24T14:54:00;20.15;;;13.07;;
65924;SDS011;66010;52.084;5.412;2023-08-24T14:56:29;18.98;;;12.35;;
65924;SDS011;66010;52.084;5.412;2023-08-24T14:58:55;21.85;;;12.65;;
65924;SDS011;66010;52.084;5.412;2023-08-24T15:01:22;18.85;;;11.40;;
65924;SDS011;66010;52.084;5.412;2023-08-24T15:03:51;18.27;;;11.15;;
65924;SDS011;66010;52.084;5.412;2023-08-24T15:06:20;18.20;;;10.63;;
65924;SDS011;66010;52.084;5.412;2023-08-24T15:08:46;17.48;;;10.95;;
65924;SDS011;66010;52.084;5.412;2023-08-24T15:11:14;21.33;;;12.15;;
65924;SDS011;66010;52.084;5.412;2023-08-24T15:13:41;18.00;;;10.95;;
65924;SDS011;66010;52.084;5.412;2023-08-24T15:16:07;15.07;;;10.02;;
65924;SDS011;66010;52.084;5.412;2023-08-24T15:18:37;14.80;;;8.75;;
65924;SDS011;66010;52.084;5.412;2023-08-24T15:21:03;17.23;;;9.88;;
65924;SDS011;66010;52.084;5.412;2023-08-24T15:23:32;19.17;;;10.65;;